Southern Sonoma County Latest

20 Stations

15 Minute Data
as of 5/6/26 7:07 PM PDT
Station Date Time Temp (°F) RH (%) Dew Pt (°F) Wind Spd (mph) Wind Dir (°) Wind Gust (mph) Latest Rain (In) Daily Rain (In) Daily Min Temp (°F) Daily Max Temp (°F)
Upper Rincon Valley 5/6/26 1900 61.4   4.7 72   5 52.3   2.9 2.0   0.8 S | 172 4.4   0.2 0.00 0.00 50.7   1.6 70.2   10.0
Lower Bennett Valley 5/6/26 1900 62.1   2.8 73   1 53.5   2.9 5.8   3.4 ESE | 110 11.3   3.8 0.00 0.00 53.4   2.5 72.1   8.6
Kenwood (Wildwood) 5/6/26 1900 62.3   4.8 72   5 53.1   2.8 5.7   0.6 N | 359 12.2   0.4 0.00 0.00 53.5   1.9 73.4   9.6
Crane Creek (Ranch 62) 5/6/26 1900 60.2   1.8 74   1 52.0   2.0 4.1   1.3 SSW | 206 6.7   0.8 0.00 0.00 53.9   2.1 72.0   6.6
Rohnert Park-West (Stony Point) 5/6/26 1900 59.0   1.3 82   2 53.5   1.9 3.0   3.2 SSW | 203 7.5   5.6 0.00 0.00 54.2   1.9 68.8   3.9
Rice-Spivak Vineyard 5/6/26 1900 58.9   1.1 - - - - - - - 53.5   1.6 70.8   2.6
Cartograph Wines Base 5/6/26 1900 56.6   0.1 88   3 53.1   1.0 9.1   0.5 SSW | 205 17.2   1.4 0.00 0.00 53.0   1.5 66.2   2.2
Cartograph Wines Remote 5/6/26 1900 60.3   2.9 - - - - - - - 53.6   1.8 68.8   3.8
Penngrove (Asellus) 5/6/26 1900 60.1   1.6 76   2 52.6   2.2 3.9   0.2 SSW | 210 8.8   1.2 0.00 0.00 54.1   2.5 70.6   6.7
Sonoma Valley (Bedrock) 5/6/26 1900 64.2   4.6 64   6 51.8   2.1 - - - 0.00 0.00 53.8   3.3 74.0   6.3
Sonoma-West (Arnold) 5/6/26 1900 65.2   6.6 65   8 53.0   3.2 4.1   1.7 W | 269 8.6   6.7 0.00 0.00 55.0   2.7 74.5   8.4
Sonoma Valley HS 5/6/26 1900 63.4   4.3 75   2 55.5   3.6 5.1   1.1 SW | 218 8.1   0.5 0.00 0.00 55.0   3.0 72.9   7.6
Sonoma East (Bundschu01) 5/6/26 1900 63.4   3.8 69   2 52.9   2.9 7.1   1.8 WSW | 237 14.9   4.2 0.00 0.00 54.9   2.6 74.9   9.0
Sonoma-SE (Napoli) 5/6/26 1900 62.9   3.1 68   1 52.4   2.4 8.3   3.5 WSW | 251 15.5   6.0 0.00 0.00 54.9   2.8 76.3   9.6
Schellville (Sasaki) 2/7/26 1900 53.4   2.2 88   10 49.9   1.0 3.3   1.8 SW | 225 5.8   4.0 0.00 0.00 47.0   0.8 62.8   8.4
Petaluma (Ranch 10) 5/6/26 1900 61.0   1.4 72   3 52.1   2.5 6.8   0.3 WNW | 282 10.5   1.5 0.00 0.00 54.6   2.2 73.7   5.7
Carneros (Ranch 71) 5/6/26 1900 60.6   2.4 74   0 52.2   2.2 15.9   6.4 W | 272 23.0   8.8 0.00 0.00 53.7   2.3 72.3   7.5
Ricci Vineyards (Carneros) 5/6/26 1845 62.4   2.2 71   0 52.9   2.2 12.4   4.2 WNW | 283 19.8   6.1 0.00 0.00 54.6   2.4 75.1   8.8
Carneros Upper (Ranch 81) 5/6/26 1900 60.9   2.8 73   2 52.1   2.0 17.8   6.1 W | 262 28.1   11.8 - - 53.8   2.4 73.5   8.2
Carneros Lower (Ranch 81) 5/6/26 1900 61.4   1.5 75   1 53.4   2.0 1.7   0.9 W | 275 9.5   1.5 0.00 0.02 54.7   2.7 75.2   6.8
Max     65.2 88 55.5 17.8 - 28.1 0.00 0.02 55.0 76.3
Avg     61.4 73 52.8 7.1 - 12.9 0.00 - - -
Min     56.6 64 51.8 1.7 - 4.4 0.00 0.00 50.7 66.2